Ischua, New York
Current Conditions -  °F | °C
As of 7:55 AM on Tuesday 21 Oct 2014 (Local Time) from KOLE Reporting Station
Haze Haze  
Wind Chill: 45°   Ceiling: 300
Heat Index: 45°   Visibility: 3mi
Dew Point: 45°   Wind: 0mph
Humidity: 100%   Direction: NA
Pressure: 29.81"   Gusts: NA
Location:  42.1993°N, 78.412°W
Report Text: KOLE 211155Z AUTO 00000KT 3SM BR OVC003 07/07 A2981 RMK AO2
Loading
Personal Weather Stations






























Interactive Weather Map
Tropical Storm Tracking
New forecast layout! Learn more

10-Day Weather Forecast

Advertisements
Track Severe Weather on mobile